Time;durP1;ratioP1;P1;durP2;ratioP2;P2;SDS_P1;SDS_P2;PMS_P1;PMS_P2;Temp;Humidity;BMP_temperature;BMP_pressure;BME280_temperature;BME280_humidity;BME280_pressure;Samples;Min_cycle;Max_cycle;Signal;HPM_P1;HPM_P2
2023/05/10 00:01:41;;;;;;;5.00;4.70;;;;;;;11.82;nan;96305.06;4930343;28;20221;-60
2023/05/10 00:04:09;;;;;;;5.03;4.73;;;;;;;11.81;nan;96298.94;4942830;28;20229;-59
2023/05/10 00:06:37;;;;;;;3.97;3.77;;;;;;;11.85;nan;96302.78;4935108;28;20403;-63
2023/05/10 00:09:04;;;;;;;4.73;4.43;;;;;;;11.85;nan;96302.78;4901691;28;20279;-62
2023/05/10 00:11:32;;;;;;;4.73;4.33;;;;;;;11.78;nan;96293.25;4930048;28;20477;-62
2023/05/10 00:14:01;;;;;;;4.87;4.33;;;;;;;11.88;nan;96293.59;4937875;28;20280;-61
2023/05/10 00:16:29;;;;;;;4.70;4.40;;;;;;;11.89;nan;96284.63;4937848;28;20221;-62
2023/05/10 00:18:57;;;;;;;4.40;3.93;;;;;;;11.96;nan;96285.38;4908797;28;20284;-62
2023/05/10 00:21:24;;;;;;;4.87;4.37;;;;;;;11.91;nan;96279.91;4946076;28;20276;-58
2023/05/10 00:23:52;;;;;;;4.67;4.17;;;;;;;11.92;nan;96283.34;4894205;28;20755;-63
2023/05/10 00:26:20;;;;;;;3.70;3.50;;;;;;;12.01;nan;96272.28;4937716;28;20209;-62
2023/05/10 00:28:47;;;;;;;3.93;3.63;;;;;;;11.99;nan;96273.53;4951889;28;20307;-62
2023/05/10 00:31:16;;;;;;;4.47;4.03;;;;;;;11.99;nan;96279.63;4934255;28;20249;-63
2023/05/10 00:33:44;;;;;;;4.47;4.07;;;;;;;11.97;nan;96272.94;4918247;28;21805;-62
2023/05/10 00:36:12;;;;;;;4.40;4.10;;;;;;;12.04;nan;96276.38;4955996;28;20642;-62
2023/05/10 00:38:40;;;;;;;4.27;4.07;;;;;;;12.06;nan;96274.31;4881858;28;21146;-54
2023/05/10 00:41:08;;;;;;;4.50;4.20;;;;;;;12.08;nan;96268.78;4946845;28;20222;-61
2023/05/10 00:43:35;;;;;;;4.60;4.30;;;;;;;12.08;nan;96266.13;4936097;28;20835;-60
2023/05/10 00:46:04;;;;;;;4.83;4.40;;;;;;;12.09;nan;96270.41;4938934;28;20276;-62
2023/05/10 00:48:33;;;;;;;4.93;4.53;;;;;;;12.07;nan;96261.84;4935841;28;20215;-61
2023/05/10 00:51:01;;;;;;;4.33;4.03;;;;;;;12.08;nan;96258.97;4952790;28;22544;-61
2023/05/10 00:53:32;;;;;;;4.83;4.47;;;;;;;12.04;nan;96256.97;4892056;28;20343;-61
2023/05/10 00:56:00;;;;;;;4.73;4.43;;;;;;;12.13;nan;96256.50;4948333;28;20221;-61
2023/05/10 00:58:30;;;;;;;5.13;4.70;;;;;;;12.11;nan;96255.91;4929022;28;21050;-58
2023/05/10 01:00:58;;;;;;;4.20;4.00;;;;;;;12.11;nan;96255.06;4936280;28;20956;-59
2023/05/10 01:03:26;;;;;;;4.83;4.43;;;;;;;12.10;nan;96253.44;4944709;28;20351;-59
2023/05/10 01:05:55;;;;;;;4.53;4.23;;;;;;;12.14;nan;96254.66;4935062;28;20210;-59
2023/05/10 01:08:23;;;;;;;5.63;5.10;;;;;;;12.13;nan;96253.84;4937808;28;20221;-59
2023/05/10 01:10:52;;;;;;;6.07;5.33;;;;;;;12.03;nan;96256.16;4905617;28;20805;-60
2023/05/10 01:13:32;;;;;;;5.60;5.10;;;;;;;12.08;nan;96256.31;4936048;28;20969;-63
2023/05/10 01:16:02;;;;;;;5.13;4.80;;;;;;;12.07;nan;96257.34;4941215;28;20295;-64
2023/05/10 01:18:30;;;;;;;5.07;4.70;;;;;;;12.00;nan;96251.25;4941521;28;21038;-61
2023/05/10 01:21:15;;;;;;;4.47;4.17;;;;;;;11.91;nan;96253.34;4931050;28;20306;-59
2023/05/10 01:24:09;;;;;;;4.80;4.50;;;;;;;11.97;nan;96255.16;4929880;28;20268;-62
2023/05/10 01:27:00;;;;;;;5.03;4.63;;;;;;;12.07;nan;96260.00;4923309;28;20518;-58
2023/05/10 01:29:46;;;;;;;4.80;4.50;;;;;;;12.15;nan;96251.78;4935786;28;20251;-62
2023/05/10 01:32:23;;;;;;;5.53;5.10;;;;;;;12.20;nan;96256.44;4941550;28;20590;-63
2023/05/10 01:34:56;;;;;;;4.77;4.47;;;;;;;12.20;nan;96260.94;4948060;28;20752;-60
2023/05/10 01:37:30;;;;;;;4.93;4.63;;;;;;;12.20;nan;96259.09;4924900;28;20482;-56
2023/05/10 01:40:02;;;;;;;4.87;4.57;;;;;;;12.23;nan;96258.66;4882360;28;20233;-63
2023/05/10 01:42:33;;;;;;;4.40;4.10;;;;;;;12.23;nan;96261.31;4943982;28;20283;-59
2023/05/10 01:45:06;;;;;;;7.20;4.47;;;;;;;12.33;nan;96262.66;4933105;28;20222;-61
2023/05/10 01:47:38;;;;;;;9.53;4.97;;;;;;;12.36;nan;96264.88;4943260;28;20226;-59
2023/05/10 01:50:11;;;;;;;5.23;4.83;;;;;;;12.32;nan;96261.88;4947298;28;20230;-58
2023/05/10 01:52:43;;;;;;;5.57;4.53;;;;;;;12.38;nan;96263.66;4927454;28;20305;-58
2023/05/10 01:55:15;;;;;;;5.23;4.83;;;;;;;12.43;nan;96271.78;4883542;28;20505;-57
2023/05/10 01:57:45;;;;;;;4.47;4.17;;;;;;;12.42;nan;96267.50;4947981;28;20686;-57
2023/05/10 02:00:13;;;;;;;4.80;4.50;;;;;;;12.44;nan;96273.41;4926715;28;20897;-62
2023/05/10 02:02:46;;;;;;;4.77;4.47;;;;;;;12.52;nan;96274.13;4949762;28;20324;-62
2023/05/10 02:05:14;;;;;;;4.90;4.40;;;;;;;12.48;nan;96273.75;4928406;28;20292;-60
2023/05/10 02:07:43;;;;;;;4.93;4.53;;;;;;;12.49;nan;96269.25;4928504;28;20728;-59
2023/05/10 02:10:11;;;;;;;4.63;4.30;;;;;;;12.53;nan;96270.44;4897641;28;20237;-60
2023/05/10 02:12:42;;;;;;;4.90;4.53;;;;;;;12.48;nan;96270.31;4954516;28;20210;-61
2023/05/10 02:15:13;;;;;;;5.63;5.23;;;;;;;12.45;nan;96268.88;4932786;28;20684;-60
2023/05/10 02:17:41;;;;;;;4.70;4.50;;;;;;;12.37;nan;96262.03;4948629;28;20225;-60
2023/05/10 02:20:11;;;;;;;4.83;4.53;;;;;;;12.38;nan;96263.66;4921589;28;20818;-60
2023/05/10 02:22:40;;;;;;;4.43;4.03;;;;;;;12.36;nan;96257.75;4926317;28;20958;-62
2023/05/10 02:25:09;;;;;;;5.33;4.93;;;;;;;12.36;nan;96254.25;4904889;28;20293;-62
2023/05/10 02:27:38;;;;;;;5.70;5.20;;;;;;;12.38;nan;96260.16;4946482;28;20198;-61
2023/05/10 02:30:07;;;;;;;5.43;5.07;;;;;;;12.38;nan;96263.66;4929928;28;20279;-62
2023/05/10 02:32:35;;;;;;;4.80;4.50;;;;;;;12.34;nan;96257.16;4953152;28;20218;-62
2023/05/10 02:35:04;;;;;;;5.80;5.40;;;;;;;12.30;nan;96255.94;4940608;28;20233;-59
2023/05/10 02:37:34;;;;;;;4.23;4.00;;;;;;;12.28;nan;96261.47;4925123;28;20501;-60
2023/05/10 02:40:03;;;;;;;5.27;4.93;;;;;;;12.29;nan;96256.97;4947859;28;20295;-60
2023/05/10 02:42:33;;;;;;;5.07;4.73;;;;;;;12.24;nan;96262.13;4903993;28;20217;-61
2023/05/10 02:45:02;;;;;;;5.10;4.80;;;;;;;12.34;nan;96259.81;4935969;28;20289;-59
2023/05/10 02:47:31;;;;;;;5.00;4.70;;;;;;;12.28;nan;96264.13;4940744;28;20214;-61
2023/05/10 02:49:59;;;;;;;5.90;5.50;;;;;;;12.25;nan;96258.44;4939837;28;20241;-62
2023/05/10 02:52:30;;;;;;;5.30;5.00;;;;;;;12.18;nan;96263.81;4918930;28;20898;-60
2023/05/10 02:55:03;;;;;;;5.93;5.47;;;;;;;12.24;nan;96259.47;4951255;28;20198;-61
2023/05/10 02:57:33;;;;;;;5.90;5.50;;;;;;;12.20;nan;96260.94;4902058;28;20276;-60
2023/05/10 03:00:02;;;;;;;7.17;6.57;;;;;;;12.06;nan;96262.88;4939068;28;20225;-60
2023/05/10 03:02:31;;;;;;;7.20;6.50;;;;;;;12.00;nan;96253.91;4947264;28;20217;-59
2023/05/10 03:04:59;;;;;;;6.17;5.60;;;;;;;11.84;nan;96258.69;4942787;28;20742;-59
2023/05/10 03:07:27;;;;;;;6.40;5.87;;;;;;;11.80;nan;96260.16;4925276;28;20413;-57
2023/05/10 03:09:55;;;;;;;6.17;5.57;;;;;;;11.71;nan;96262.25;4950708;28;20944;-60
2023/05/10 03:12:31;;;;;;;6.03;5.47;;;;;;;11.66;nan;96253.31;4900348;28;22454;-61
2023/05/10 03:15:02;;;;;;;5.83;5.33;;;;;;;11.64;nan;96255.38;4949023;28;20209;-61
2023/05/10 03:17:31;;;;;;;7.30;6.80;;;;;;;11.71;nan;96256.94;4927748;28;20217;-60
2023/05/10 03:20:04;;;;;;;6.27;5.77;;;;;;;11.64;nan;96253.53;4954682;28;21162;-60
2023/05/10 03:22:37;;;;;;;6.17;5.70;;;;;;;11.65;nan;96251.69;4953988;28;20206;-63
2023/05/10 03:25:07;;;;;;;6.47;5.97;;;;;;;11.65;nan;96259.66;4936401;28;20229;-59
2023/05/10 03:27:40;;;;;;;6.27;5.77;;;;;;;11.65;nan;96257.81;4932482;28;20217;-60
2023/05/10 03:30:10;;;;;;;6.30;5.90;;;;;;;11.67;nan;96268.22;4898255;28;20483;-59
2023/05/10 03:32:37;;;;;;;7.10;6.50;;;;;;;11.70;nan;96275.75;4933584;28;20206;-61
2023/05/10 03:35:08;;;;;;;7.47;6.87;;;;;;;11.58;nan;96272.97;4935321;28;20556;-59
2023/05/10 03:37:36;;;;;;;6.43;5.83;;;;;;;11.68;nan;96275.16;4953627;28;20213;-59
2023/05/10 03:40:04;;;;;;;7.30;6.60;;;;;;;11.62;nan;96273.34;4934763;28;20465;-62
2023/05/10 03:42:32;;;;;;;7.00;6.40;;;;;;;11.56;nan;96270.53;4952087;28;20271;-60
2023/05/10 03:45:01;;;;;;;6.20;5.73;;;;;;;11.50;nan;96278.50;4909959;28;20236;-59
2023/05/10 03:47:29;;;;;;;6.87;6.37;;;;;;;11.42;nan;96279.56;4956480;28;20420;-59
2023/05/10 03:49:57;;;;;;;7.07;6.47;;;;;;;11.41;nan;96277.94;4941652;28;21118;-61
2023/05/10 03:52:25;;;;;;;7.07;6.57;;;;;;;11.34;nan;96274.50;4958456;28;20845;-62
2023/05/10 03:54:52;;;;;;;7.90;7.00;;;;;;;11.31;nan;96288.19;4938369;28;21004;-61
2023/05/10 03:57:20;;;;;;;7.20;6.60;;;;;;;11.15;nan;96283.16;4961694;28;20798;-62
2023/05/10 03:59:48;;;;;;;7.90;7.23;;;;;;;11.20;nan;96281.69;4958534;28;20233;-59
2023/05/10 04:02:17;;;;;;;8.23;7.63;;;;;;;11.11;nan;96292.53;4915703;28;20201;-61
2023/05/10 04:04:45;;;;;;;7.57;7.07;;;;;;;11.08;nan;96295.63;4941928;28;20816;-56
2023/05/10 04:07:12;;;;;;;7.77;7.17;;;;;;;11.24;nan;96289.03;4950107;28;20235;-59
2023/05/10 04:09:41;;;;;;;7.83;7.33;;;;;;;11.09;nan;96291.13;4939438;28;20545;-61
2023/05/10 04:12:08;;;;;;;8.00;7.33;;;;;;;11.05;nan;96293.38;4959072;28;20307;-62
2023/05/10 04:14:37;;;;;;;7.63;7.03;;;;;;;11.11;nan;96289.91;4956211;28;20248;-59
2023/05/10 04:17:05;;;;;;;8.13;7.30;;;;;;;11.07;nan;96295.81;4906271;28;20578;-58
2023/05/10 04:19:34;;;;;;;7.90;7.30;;;;;;;11.07;nan;96298.47;4939015;28;20221;-62
2023/05/10 04:22:03;;;;;;;8.13;7.43;;;;;;;10.97;nan;96302.38;4962054;28;20293;-57
2023/05/10 04:24:31;;;;;;;8.03;7.47;;;;;;;10.96;nan;96300.75;4959338;28;21062;-59
2023/05/10 04:26:59;;;;;;;9.23;8.33;;;;;;;10.82;nan;96291.22;4937298;28;20304;-59
2023/05/10 04:29:26;;;;;;;8.00;7.40;;;;;;;10.92;nan;96299.53;4955811;28;20229;-59
2023/05/10 04:31:56;;;;;;;8.20;7.60;;;;;;;10.98;nan;96301.34;4883312;28;20206;-60
2023/05/10 04:34:24;;;;;;;8.63;7.77;;;;;;;11.09;nan;96299.91;4957138;28;20206;-60
2023/05/10 04:36:53;;;;;;;9.63;8.73;;;;;;;11.02;nan;96306.22;4913123;28;20218;-61
2023/05/10 04:39:21;;;;;;;8.60;7.87;;;;;;;10.92;nan;96314.59;4954459;28;20279;-61
2023/05/10 04:41:49;;;;;;;8.90;8.10;;;;;;;10.95;nan;96314.19;4936086;28;20682;-59
2023/05/10 04:44:16;;;;;;;9.43;8.53;;;;;;;10.97;nan;96318.28;4956733;28;20205;-60
2023/05/10 04:46:44;;;;;;;8.63;7.93;;;;;;;11.06;nan;96302.13;4953299;28;20782;-58
2023/05/10 04:49:12;;;;;;;8.63;7.90;;;;;;;11.01;nan;96318.69;4910353;28;20704;-62
2023/05/10 04:51:40;;;;;;;9.87;8.97;;;;;;;11.06;nan;96320.69;4936081;28;20217;-60
2023/05/10 04:54:09;;;;;;;8.80;8.10;;;;;;;11.02;nan;96322.13;4924040;28;20384;-58
2023/05/10 04:56:37;;;;;;;8.67;7.87;;;;;;;10.93;nan;96324.19;4929303;28;20947;-62
2023/05/10 04:59:04;;;;;;;9.30;8.47;;;;;;;10.84;nan;96319.13;4958208;28;20237;-63
2023/05/10 05:01:32;;;;;;;9.50;8.57;;;;;;;10.84;nan;96324.41;4954260;28;20205;-61
2023/05/10 05:04:00;;;;;;;10.20;9.40;;;;;;;10.76;nan;96331.75;4903091;28;20757;-61
2023/05/10 05:06:28;;;;;;;9.83;8.77;;;;;;;10.82;nan;96333.59;4935999;28;20231;-60
2023/05/10 05:08:55;;;;;;;9.63;8.73;;;;;;;10.76;nan;96326.47;4954379;28;20237;-59
2023/05/10 05:11:25;;;;;;;9.17;8.47;;;;;;;10.81;nan;96338.06;4954238;28;20283;-57
2023/05/10 05:13:53;;;;;;;9.60;8.70;;;;;;;10.84;nan;96340.31;4939737;28;20220;-62
2023/05/10 05:16:21;;;;;;;9.90;9.00;;;;;;;10.83;nan;96337.88;4957868;28;20208;-61
2023/05/10 05:18:49;;;;;;;9.43;8.70;;;;;;;10.96;nan;96339.66;4905469;28;20218;-59
2023/05/10 05:21:17;;;;;;;9.63;8.73;;;;;;;10.93;nan;96335.63;4949111;28;20205;-59
2023/05/10 05:23:44;;;;;;;8.60;8.00;;;;;;;10.89;nan;96339.69;4932379;28;20222;-58
2023/05/10 05:26:12;;;;;;;9.27;8.57;;;;;;;10.92;nan;96349.88;4951352;28;20670;-57
2023/05/10 05:28:42;;;;;;;9.57;8.63;;;;;;;11.10;nan;96351.88;4896790;28;20374;-58
2023/05/10 05:31:09;;;;;;;9.90;8.93;;;;;;;11.11;nan;96360.66;4925454;28;20223;-59
2023/05/10 05:33:38;;;;;;;9.87;8.97;;;;;;;11.04;nan;96368.63;4930193;28;20520;-61
2023/05/10 05:36:07;;;;;;;8.57;7.97;;;;;;;11.06;nan;96373.72;4908214;28;20245;-61
2023/05/10 05:38:35;;;;;;;10.67;9.67;;;;;;;11.17;nan;96370.41;4931326;28;20786;-61
2023/05/10 05:41:02;;;;;;;11.00;9.97;;;;;;;10.94;nan;96381.47;4959504;28;20224;-60
2023/05/10 05:43:30;;;;;;;9.77;9.07;;;;;;;10.86;nan;96366.63;4936137;28;20667;-62
2023/05/10 05:45:59;;;;;;;9.03;8.33;;;;;;;10.83;nan;96380.28;4957028;28;20713;-59
2023/05/10 05:48:27;;;;;;;9.07;8.37;;;;;;;10.87;nan;96368.25;4937675;28;20652;-60
2023/05/10 05:50:56;;;;;;;8.77;8.13;;;;;;;10.98;nan;96382.69;4908449;28;20225;-58
2023/05/10 05:53:24;;;;;;;9.30;8.60;;;;;;;11.11;nan;96381.84;4946857;28;20214;-56
2023/05/10 05:55:53;;;;;;;9.77;8.97;;;;;;;11.19;nan;96384.31;4931704;28;20214;-57
2023/05/10 05:58:21;;;;;;;9.27;8.67;;;;;;;11.23;nan;96385.53;4943468;28;20205;-58
2023/05/10 06:00:49;;;;;;;10.10;9.30;;;;;;;11.09;nan;96379.44;4949943;28;20891;-59
2023/05/10 06:03:19;;;;;;;9.80;8.77;;;;;;;11.26;nan;96392.22;4937576;28;20214;-58
2023/05/10 06:05:47;;;;;;;9.73;8.93;;;;;;;10.90;nan;96394.34;4906482;28;21028;-62
2023/05/10 06:08:15;;;;;;;9.73;8.93;;;;;;;10.99;nan;96397.59;4950541;28;20829;-60
2023/05/10 06:10:43;;;;;;;9.97;9.07;;;;;;;10.71;nan;96402.06;4931416;28;20748;-57
2023/05/10 06:13:11;;;;;;;10.07;9.27;;;;;;;11.09;nan;96405.09;4956134;28;20272;-62
2023/05/10 06:15:39;;;;;;;10.27;9.23;;;;;;;11.19;nan;96394.91;4940648;28;20487;-61
2023/05/10 06:18:06;;;;;;;9.83;9.10;;;;;;;11.20;nan;96403.66;4946101;28;20288;-63
2023/05/10 06:20:36;;;;;;;10.50;9.60;;;;;;;11.44;nan;96397.69;4936475;28;20229;-59
2023/05/10 06:23:03;;;;;;;11.53;10.53;;;;;;;11.75;nan;96402.50;4904656;28;20245;-60
2023/05/10 06:25:31;;;;;;;10.23;9.27;;;;;;;11.81;nan;96402.44;4950338;28;20194;-59
2023/05/10 06:27:59;;;;;;;10.70;9.60;;;;;;;11.90;nan;96404.84;4933335;28;20229;-59
2023/05/10 06:30:28;;;;;;;10.47;9.37;;;;;;;12.05;nan;96410.75;4933781;28;20803;-60
2023/05/10 06:32:56;;;;;;;9.77;9.03;;;;;;;11.96;nan;96409.34;4952863;28;20819;-61
2023/05/10 06:35:24;;;;;;;9.70;8.90;;;;;;;12.10;nan;96412.75;4935553;28;20253;-57
2023/05/10 06:37:53;;;;;;;9.47;8.63;;;;;;;11.98;nan;96418.72;4905018;28;20218;-63
2023/05/10 06:40:21;;;;;;;9.93;9.10;;;;;;;11.84;nan;96411.84;4953254;28;20838;-59
2023/05/10 06:42:49;;;;;;;10.40;9.70;;;;;;;11.95;nan;96421.78;4933609;28;20202;-60
2023/05/10 06:45:17;;;;;;;10.60;9.63;;;;;;;12.16;nan;96427.84;4944223;28;20229;-59
2023/05/10 06:47:45;;;;;;;10.10;9.20;;;;;;;12.09;nan;96424.41;4945466;28;21215;-58
2023/05/10 06:50:13;;;;;;;10.97;10.03;;;;;;;12.13;nan;96415.00;4937610;28;20299;-58
2023/05/10 06:52:41;;;;;;;10.33;9.40;;;;;;;12.20;nan;96425.56;4948626;28;20201;-60
2023/05/10 06:55:11;;;;;;;10.80;9.83;;;;;;;12.23;nan;96425.97;4906263;28;20217;-58
2023/05/10 06:57:39;;;;;;;10.67;9.87;;;;;;;12.02;nan;96422.59;4930431;28;20954;-59
2023/05/10 07:00:09;;;;;;;10.63;9.67;;;;;;;12.34;nan;96432.47;4955169;28;20245;-62
2023/05/10 07:02:37;;;;;;;10.97;10.17;;;;;;;12.30;nan;96421.44;4929993;28;20333;-60
2023/05/10 07:05:06;;;;;;;10.13;9.33;;;;;;;12.01;nan;96436.09;4933781;28;20210;-59
2023/05/10 07:07:33;;;;;;;11.43;10.43;;;;;;;12.17;nan;96437.47;4950211;28;20536;-59
2023/05/10 07:10:01;;;;;;;10.70;9.90;;;;;;;12.18;nan;96435.59;4906647;28;20236;-56
2023/05/10 07:12:31;;;;;;;10.77;9.97;;;;;;;12.34;nan;96443.09;4951272;28;20203;-59
2023/05/10 07:14:59;;;;;;;10.43;9.63;;;;;;;12.41;nan;96443.03;4935574;28;20213;-59
2023/05/10 07:17:27;;;;;;;11.23;10.33;;;;;;;12.59;nan;96445.78;4932060;28;20221;-58
2023/05/10 07:19:55;;;;;;;10.73;9.93;;;;;;;12.31;nan;96440.81;4954696;28;20577;-61
2023/05/10 07:22:23;;;;;;;10.77;9.97;;;;;;;12.56;nan;96440.06;4928836;28;20217;-56
2023/05/10 07:24:50;;;;;;;10.20;9.43;;;;;;;12.68;nan;96448.97;4903806;28;20705;-59
2023/05/10 07:27:18;;;;;;;11.40;10.50;;;;;;;12.88;nan;96453.34;4950472;28;20241;-59
2023/05/10 07:29:48;;;;;;;10.70;9.90;;;;;;;13.14;nan;96456.81;4933951;28;20233;-55
2023/05/10 07:32:16;;;;;;;10.33;9.53;;;;;;;13.15;nan;96453.13;4935280;28;20214;-59
2023/05/10 07:34:43;;;;;;;10.60;9.70;;;;;;;13.56;nan;96454.41;4952175;28;21182;-59
2023/05/10 07:37:11;;;;;;;9.83;9.03;;;;;;;13.71;nan;96451.38;4928585;28;20722;-58
2023/05/10 07:39:39;;;;;;;9.73;8.93;;;;;;;13.72;nan;96460.97;4953007;28;20280;-62
2023/05/10 07:42:08;;;;;;;9.60;8.93;;;;;;;13.91;nan;96457.50;4907946;28;20304;-60
2023/05/10 07:44:35;;;;;;;9.47;8.67;;;;;;;13.81;nan;96458.00;4941786;28;20213;-60
2023/05/10 07:47:05;;;;;;;9.07;8.47;;;;;;;14.38;nan;96464.88;4954867;28;20979;-57
2023/05/10 07:49:32;;;;;;;9.50;8.80;;;;;;;14.11;nan;96465.25;4934923;28;20229;-59
2023/05/10 07:52:00;;;;;;;8.97;8.27;;;;;;;14.49;nan;96464.13;4954874;28;20218;-59
2023/05/10 07:54:28;;;;;;;10.23;9.33;;;;;;;14.72;nan;96468.75;4931163;28;20211;-59
2023/05/10 07:56:56;;;;;;;9.27;8.43;;;;;;;14.92;nan;96467.63;4896816;28;20350;-58
2023/05/10 07:59:23;;;;;;;9.70;8.90;;;;;;;14.80;nan;96459.63;4931423;28;20308;-57
2023/05/10 08:01:51;;;;;;;8.97;8.37;;;;;;;14.89;nan;96468.91;4956231;28;20206;-58
2023/05/10 08:04:20;;;;;;;8.70;8.03;;;;;;;15.14;nan;96459.88;4936411;28;20221;-58
2023/05/10 08:06:48;;;;;;;10.07;9.13;;;;;;;14.85;nan;96464.25;4958784;28;20459;-60
2023/05/10 08:09:17;;;;;;;7.43;6.93;;;;;;;14.87;nan;96462.16;4931510;28;20509;-58
2023/05/10 08:11:45;;;;;;;7.53;7.03;;;;;;;14.54;nan;96463.44;4958166;28;20575;-59
2023/05/10 08:14:13;;;;;;;8.37;7.57;;;;;;;14.10;nan;96472.41;4889948;28;20709;-61
2023/05/10 08:16:41;;;;;;;8.30;7.70;;;;;;;14.40;nan;96466.28;4953577;28;20369;-59
2023/05/10 08:19:08;;;;;;;8.20;7.60;;;;;;;14.45;nan;96466.44;4959019;28;20221;-63
2023/05/10 08:21:40;;;;;;;6.77;6.37;;;;;;;14.53;nan;96467.97;4932832;28;20213;-57
2023/05/10 08:24:08;;;;;;;8.00;7.30;;;;;;;14.89;nan;96466.25;4935973;28;21019;-61
2023/05/10 08:26:36;;;;;;;7.87;7.37;;;;;;;15.04;nan;96468.47;4955586;28;20690;-60
2023/05/10 08:29:03;;;;;;;8.37;7.77;;;;;;;15.08;nan;96468.81;4905879;28;20233;-62
2023/05/10 08:31:31;;;;;;;7.43;6.73;;;;;;;15.49;nan;96472.41;4936238;28;20500;-62
2023/05/10 08:34:00;;;;;;;7.23;6.50;;;;;;;15.29;nan;96470.09;4959510;28;20214;-60
2023/05/10 08:36:27;;;;;;;5.77;5.27;;;;;;;15.46;nan;96472.09;4909025;28;20579;-59
2023/05/10 08:38:56;;;;;;;5.57;5.17;;;;;;;15.41;nan;96472.78;4951014;28;20831;-60
2023/05/10 08:41:25;;;;;;;6.33;5.93;;;;;;;15.46;nan;96477.41;4935897;28;20745;-57
2023/05/10 08:43:54;;;;;;;6.90;6.47;;;;;;;15.05;nan;96480.75;4909037;28;20214;-60
2023/05/10 08:46:22;;;;;;;6.53;6.03;;;;;;;14.75;nan;96478.97;4936653;28;20268;-58
2023/05/10 08:48:51;;;;;;;6.17;5.67;;;;;;;14.79;nan;96486.50;4956768;28;20720;-60
2023/05/10 08:51:21;;;;;;;6.50;6.00;;;;;;;14.90;nan;96491.88;4937568;28;20217;-59
2023/05/10 08:53:48;;;;;;;5.40;4.90;;;;;;;14.68;nan;96490.72;4951901;28;20843;-62
2023/05/10 08:56:19;;;;;;;4.27;3.87;;;;;;;14.59;nan;96491.03;4936726;28;20548;-58
2023/05/10 08:58:48;;;;;;;3.97;3.77;;;;;;;14.71;nan;96493.78;4957691;28;20573;-60
2023/05/10 09:01:17;;;;;;;4.07;3.57;;;;;;;14.88;nan;96498.47;4884746;28;20304;-57
2023/05/10 09:03:47;;;;;;;3.80;3.43;;;;;;;14.60;nan;96497.22;4952481;28;20852;-60
2023/05/10 09:06:15;;;;;;;2.57;2.47;;;;;;;14.38;nan;96503.03;4950639;28;20231;-59
2023/05/10 09:08:44;;;;;;;2.73;2.53;;;;;;;14.31;nan;96507.63;4944399;28;20256;-59
2023/05/10 09:11:12;;;;;;;2.80;2.63;;;;;;;14.18;nan;96503.28;4937436;28;20214;-58
2023/05/10 09:13:43;;;;;;;2.07;1.97;;;;;;;14.49;nan;96501.44;4955950;28;20208;-60
2023/05/10 09:16:11;;;;;;;1.77;1.77;;;;;;;14.78;nan;96504.38;4883148;28;20217;-60
2023/05/10 09:18:49;;;;;;;1.57;1.47;;;;;;;15.06;nan;96508.25;4957796;28;20979;-59
2023/05/10 09:21:17;;;;;;;1.70;1.60;;;;;;;15.49;nan;96498.31;4958788;28;20652;-60
2023/05/10 09:23:46;;;;;;;2.90;1.60;;;;;;;15.88;nan;96501.31;4936393;28;20244;-59
2023/05/10 09:26:15;;;;;;;1.27;1.27;;;;;;;15.96;nan;96499.34;4924041;28;20656;-56
2023/05/10 09:28:55;;;;;;;1.00;1.00;;;;;;;15.85;nan;96508.97;4957113;28;20470;-60
2023/05/10 09:31:24;;;;;;;1.33;1.33;;;;;;;15.57;nan;96508.63;4883024;28;20529;-59
2023/05/10 09:33:52;;;;;;;0.83;0.83;;;;;;;15.41;nan;96506.66;4952271;28;20209;-60
2023/05/10 09:36:20;;;;;;;1.07;1.07;;;;;;;14.95;nan;96511.69;4948851;28;20214;-59
2023/05/10 09:38:49;;;;;;;0.90;0.90;;;;;;;14.68;nan;96512.06;4936429;28;20528;-62
2023/05/10 09:41:18;;;;;;;2.40;1.00;;;;;;;14.54;nan;96506.09;4933880;28;20217;-60
2023/05/10 09:43:46;;;;;;;1.10;1.10;;;;;;;14.44;nan;96512.78;4958170;28;20321;-60
2023/05/10 09:46:15;;;;;;;2.33;1.00;;;;;;;14.67;nan;96507.75;4890138;28;20221;-61
2023/05/10 09:48:45;;;;;;;0.80;0.80;;;;;;;14.76;nan;96517.91;4946096;28;20566;-56
2023/05/10 09:51:20;;;;;;;0.90;0.90;;;;;;;14.89;nan;96508.91;4952811;28;20217;-60
2023/05/10 09:53:50;;;;;;;1.00;1.00;;;;;;;15.00;nan;96517.16;4932534;28;20661;-62
2023/05/10 09:56:37;;;;;;;1.30;1.30;;;;;;;14.91;nan;96514.00;4943698;28;20214;-60
2023/05/10 09:59:05;;;;;;;1.97;1.17;;;;;;;14.90;nan;96505.19;4953354;28;20731;-59
2023/05/10 10:01:35;;;;;;;1.30;1.00;;;;;;;14.73;nan;96510.38;4905957;28;20765;-61
2023/05/10 10:04:04;;;;;;;1.50;1.40;;;;;;;14.89;nan;96513.41;4938506;28;20685;-59
2023/05/10 10:06:37;;;;;;;1.03;1.03;;;;;;;15.28;nan;96511.16;4951957;28;20240;-61
2023/05/10 10:09:05;;;;;;;1.13;1.03;;;;;;;15.45;nan;96507.84;4929800;28;20229;-63
2023/05/10 10:11:35;;;;;;;1.10;1.10;;;;;;;15.76;nan;96503.97;4933706;28;20459;-60
2023/05/10 10:14:03;;;;;;;1.10;1.10;;;;;;;16.16;nan;96505.13;4955570;28;20982;-59
2023/05/10 10:16:31;;;;;;;1.20;1.20;;;;;;;16.49;nan;96514.31;4900713;28;22056;-56
2023/05/10 10:19:01;;;;;;;1.60;1.07;;;;;;;16.64;nan;96510.28;4935444;28;20400;-61
2023/05/10 10:21:30;;;;;;;0.90;0.90;;;;;;;16.34;nan;96503.31;4950729;28;20217;-60
2023/05/10 10:23:58;;;;;;;2.83;0.97;;;;;;;16.57;nan;96509.63;4931412;28;20218;-61
2023/05/10 10:26:26;;;;;;;0.80;0.80;;;;;;;17.17;nan;96502.09;4930638;28;20221;-60
2023/05/10 10:29:01;;;;;;;1.00;1.00;;;;;;;17.18;nan;96506.41;4957407;28;20829;-62
2023/05/10 10:31:33;;;;;;;1.07;1.07;;;;;;;17.24;nan;96505.47;4952534;28;20836;-62
2023/05/10 10:34:06;;;;;;;1.33;1.03;;;;;;;17.56;nan;96496.81;4883672;28;20218;-61
2023/05/10 10:36:40;;;;;;;1.00;1.00;;;;;;;18.10;nan;96503.47;4955389;28;20204;-60
2023/05/10 10:39:11;;;;;;;1.37;1.00;;;;;;;18.91;nan;96495.75;4934353;28;20239;-60
2023/05/10 10:41:43;;;;;;;0.77;0.77;;;;;;;18.65;nan;96500.84;4937814;28;20290;-62
2023/05/10 10:44:40;;;;;;;3.17;1.77;;;;;;;18.69;nan;96493.91;4954938;28;20205;-57
2023/05/10 10:47:28;;;;;;;2.60;1.63;;;;;;;19.11;nan;96494.31;4946118;28;20717;-59
2023/05/10 10:50:09;;;;;;;3.67;1.00;;;;;;;19.37;nan;96490.78;4931115;28;20715;-59
2023/05/10 10:52:38;;;;;;;3.43;1.50;;;;;;;19.50;nan;96488.69;4951968;28;20213;-60
2023/05/10 10:55:07;;;;;;;1.20;1.20;;;;;;;19.67;nan;96488.53;4935165;28;20217;-62
2023/05/10 10:57:45;;;;;;;1.40;1.30;;;;;;;19.44;nan;96487.06;4929462;28;20954;-62
2023/05/10 11:00:27;;;;;;;3.23;1.40;;;;;;;19.85;nan;96484.63;4958737;28;20536;-60
2023/05/10 11:02:58;;;;;;;1.10;1.10;;;;;;;20.24;nan;96483.47;4951494;28;20212;-59
2023/05/10 11:05:43;;;;;;;1.70;1.33;;;;;;;20.28;nan;96475.72;4893821;28;20272;-60
2023/05/10 11:08:13;;;;;;;1.17;1.17;;;;;;;20.58;nan;96469.59;4952218;28;20216;-60
2023/05/10 11:10:49;;;;;;;3.10;1.57;;;;;;;20.82;nan;96466.41;4932138;28;20432;-59
2023/05/10 11:13:17;;;;;;;1.17;1.17;;;;;;;20.60;nan;96469.31;4950274;28;20518;-60
2023/05/10 11:15:50;;;;;;;0.90;0.90;;;;;;;20.17;nan;96462.19;4937956;28;21046;-59
2023/05/10 11:18:19;;;;;;;1.13;1.07;;;;;;;20.29;nan;96464.66;4954523;28;20536;-59
2023/05/10 11:20:53;;;;;;;2.00;0.90;;;;;;;18.79;nan;96461.00;4881124;28;20228;-61
2023/05/10 11:23:21;;;;;;;2.40;1.10;;;;;;;19.71;nan;96464.66;4950695;28;20210;-58
2023/05/10 11:25:50;;;;;;;0.83;0.83;;;;;;;19.75;nan;96468.44;4938079;28;20221;-62
2023/05/10 11:28:18;;;;;;;1.63;0.80;;;;;;;19.37;nan;96465.81;4953993;28;20347;-60
2023/05/10 11:30:46;;;;;;;0.80;0.80;;;;;;;19.15;nan;96471.28;4937685;28;20233;-62
2023/05/10 11:33:19;;;;;;;0.87;0.87;;;;;;;18.69;nan;96477.03;4946677;28;20210;-61
2023/05/10 11:35:47;;;;;;;1.63;1.00;;;;;;;18.60;nan;96474.81;4906279;28;20213;-56
2023/05/10 11:38:16;;;;;;;1.00;1.00;;;;;;;18.51;nan;96482.50;4938766;28;20217;-60
2023/05/10 11:40:44;;;;;;;1.90;1.80;;;;;;;17.64;nan;96485.72;4938477;28;20826;-60
2023/05/10 11:43:12;;;;;;;2.23;2.03;;;;;;;17.65;nan;96481.13;4959381;28;20259;-58
2023/05/10 11:45:43;;;;;;;1.77;1.50;;;;;;;17.27;nan;96480.88;4942824;28;20476;-62
2023/05/10 11:48:11;;;;;;;2.00;1.90;;;;;;;17.10;nan;96480.88;4956724;28;20213;-60
2023/05/10 11:50:38;;;;;;;2.10;2.00;;;;;;;17.04;nan;96488.00;4910521;28;20229;-59
2023/05/10 11:53:06;;;;;;;3.50;2.10;;;;;;;16.59;nan;96491.47;4955995;28;20228;-61
2023/05/10 11:55:36;;;;;;;3.30;2.40;;;;;;;16.24;nan;96493.22;4937715;28;20205;-62
2023/05/10 11:58:03;;;;;;;2.00;1.90;;;;;;;16.06;nan;96499.53;4937915;28;20268;-61
2023/05/10 12:00:32;;;;;;;2.60;2.20;;;;;;;15.87;nan;96513.03;4941298;28;20700;-61